Time;durP1;ratioP1;P1;durP2;ratioP2;P2;SDS_P1;SDS_P2;PMS_P1;PMS_P2;Temp;Humidity;BMP_temperature;BMP_pressure;BME280_temperature;BME280_humidity;BME280_pressure;Samples;Min_cycle;Max_cycle;Signal;HPM_P1;HPM_P2
2022/11/26 00:00:46;;;;;;;3.40;1.38;;;;;;;4.31;75.48;92943.09;5091427;28;20044;-73
2022/11/26 00:03:13;;;;;;;2.15;1.20;;;;;;;4.41;74.02;92946.88;5089996;28;20085;-73
2022/11/26 00:05:45;;;;;;;2.38;1.20;;;;;;;4.58;70.88;92947.66;5089868;28;20012;-73
2022/11/26 00:08:33;;;;;;;2.00;1.10;;;;;;;4.70;70.95;92942.38;5089782;28;20032;-73
2022/11/26 00:10:59;;;;;;;1.58;1.00;;;;;;;4.88;68.66;92951.69;5089717;28;20043;-73
2022/11/26 00:13:28;;;;;;;1.92;1.15;;;;;;;4.94;68.35;92955.94;5091181;28;20063;-74
2022/11/26 00:15:54;;;;;;;1.85;1.10;;;;;;;5.01;67.24;92954.72;5091060;28;20092;-73
2022/11/26 00:18:25;;;;;;;0.70;0.68;;;;;;;5.09;66.55;92956.13;5084080;28;20036;-73
2022/11/26 00:20:55;;;;;;;1.60;1.08;;;;;;;5.28;63.48;92964.41;5082759;28;20097;-73
2022/11/26 00:23:23;;;;;;;2.20;1.02;;;;;;;5.33;63.06;92961.06;5089948;28;20493;-74
2022/11/26 00:25:53;;;;;;;1.25;0.98;;;;;;;5.37;62.88;92967.38;5089786;28;20027;-74
2022/11/26 00:28:27;;;;;;;1.77;1.10;;;;;;;5.56;60.91;92968.63;5072873;28;20028;-74
2022/11/26 00:30:58;;;;;;;2.83;1.00;;;;;;;5.52;61.52;92959.75;5089787;28;20565;-74
2022/11/26 00:33:25;;;;;;;1.02;0.80;;;;;;;5.51;60.73;92955.56;5090903;28;20093;-74
2022/11/26 00:36:02;;;;;;;1.58;0.90;;;;;;;5.46;61.13;92962.53;5090949;28;20036;-74
2022/11/26 00:38:29;;;;;;;1.52;1.00;;;;;;;5.46;60.51;92965.91;5090795;28;20062;-74
2022/11/26 00:40:55;;;;;;;1.63;1.00;;;;;;;5.51;59.98;92963.34;5091115;28;20043;-75
2022/11/26 00:43:20;;;;;;;1.15;0.88;;;;;;;5.50;60.05;92977.38;5090588;28;20036;-74
2022/11/26 00:45:49;;;;;;;1.85;1.00;;;;;;;5.61;58.86;92971.28;5090999;28;20058;-74
2022/11/26 00:48:15;;;;;;;2.67;1.00;;;;;;;5.63;58.83;92971.81;5073203;28;20043;-74
2022/11/26 00:50:45;;;;;;;1.90;0.95;;;;;;;5.68;58.52;92972.91;5069426;28;20694;-75
2022/11/26 00:53:15;;;;;;;0.95;0.80;;;;;;;5.69;58.06;92979.66;5086148;28;20113;-75
2022/11/26 00:55:45;;;;;;;1.75;0.80;;;;;;;5.63;58.71;92982.22;5070505;28;20093;-74
2022/11/26 00:58:29;;;;;;;1.23;1.00;;;;;;;5.73;57.89;92985.94;5086052;28;20072;-74
2022/11/26 01:00:57;;;;;;;2.30;1.00;;;;;;;5.63;58.26;92992.59;5086134;28;20064;-73
2022/11/26 01:03:24;;;;;;;0.93;0.90;;;;;;;5.60;57.79;92997.47;5078796;28;20094;-74
2022/11/26 01:05:52;;;;;;;2.22;1.00;;;;;;;5.56;58.13;92991.19;5069320;28;20033;-74
2022/11/26 01:08:33;;;;;;;1.63;0.90;;;;;;;5.63;57.04;92991.81;5070172;28;20067;-74
2022/11/26 01:11:01;;;;;;;0.68;0.68;;;;;;;5.68;56.39;92993.69;5085922;28;20040;-74
2022/11/26 01:13:28;;;;;;;1.17;0.90;;;;;;;5.67;56.42;92997.31;5069320;28;20028;-74
2022/11/26 01:16:05;;;;;;;1.40;0.88;;;;;;;5.69;55.95;92990.81;5069273;28;20028;-73
2022/11/26 01:18:33;;;;;;;1.42;0.93;;;;;;;5.69;55.98;92984.84;5069239;28;20033;-73
2022/11/26 01:20:59;;;;;;;2.67;0.93;;;;;;;5.68;55.86;92988.50;5074008;28;20052;-73
2022/11/26 01:23:25;;;;;;;1.15;0.75;;;;;;;5.74;55.01;92997.88;5073926;28;20075;-73
2022/11/26 01:25:50;;;;;;;1.85;1.00;;;;;;;5.76;54.92;92994.03;5072777;28;20048;-73
2022/11/26 01:28:18;;;;;;;1.05;0.80;;;;;;;5.77;55.05;92998.19;5072549;28;20044;-73
2022/11/26 01:30:44;;;;;;;1.92;0.80;;;;;;;5.74;55.02;93003.09;5089572;28;20569;-73
2022/11/26 01:33:10;;;;;;;1.23;0.77;;;;;;;5.66;55.67;93008.72;5072472;28;20040;-73
2022/11/26 01:35:36;;;;;;;0.75;0.70;;;;;;;5.81;53.30;93009.69;5072503;28;20486;-73
2022/11/26 01:38:02;;;;;;;1.23;0.90;;;;;;;5.89;53.40;93000.66;5077581;28;20024;-73
2022/11/26 01:40:27;;;;;;;2.28;1.00;;;;;;;5.96;52.83;93009.06;5092478;28;20035;-73
2022/11/26 01:43:27;;;;;;;2.17;1.05;;;;;;;5.96;52.78;93010.88;5093936;28;20114;-73
2022/11/26 01:45:55;;;;;;;2.40;0.98;;;;;;;5.93;52.94;93014.75;5080800;28;20032;-74
2022/11/26 01:48:28;;;;;;;1.70;0.90;;;;;;;5.93;52.60;93016.56;5076428;28;20435;-73
2022/11/26 01:51:05;;;;;;;1.20;0.80;;;;;;;5.98;52.03;93019.22;5093410;28;20036;-73
2022/11/26 01:53:44;;;;;;;1.30;1.00;;;;;;;5.97;51.77;93015.84;5092239;28;20123;-74
2022/11/26 01:56:20;;;;;;;2.70;0.85;;;;;;;5.99;51.17;93011.19;5093550;28;20044;-73
2022/11/26 01:59:23;;;;;;;1.52;0.88;;;;;;;6.04;51.29;93018.25;5092144;28;20039;-73
2022/11/26 02:01:51;;;;;;;1.05;0.80;;;;;;;6.00;50.94;93017.94;5085548;28;20039;-73
2022/11/26 02:04:26;;;;;;;1.77;0.80;;;;;;;6.05;50.41;93022.41;5093528;28;20352;-74
2022/11/26 02:06:54;;;;;;;1.23;0.80;;;;;;;6.00;51.15;93025.75;5091946;28;20089;-73
2022/11/26 02:09:22;;;;;;;1.17;0.80;;;;;;;6.01;50.52;93027.34;5092183;28;20046;-74
2022/11/26 02:11:47;;;;;;;2.20;0.88;;;;;;;5.94;51.06;93023.31;5092114;28;20036;-74
2022/11/26 02:14:25;;;;;;;1.33;0.90;;;;;;;5.93;51.45;93024.34;5092162;28;20028;-73
2022/11/26 02:17:26;;;;;;;0.60;0.60;;;;;;;5.83;51.38;93038.00;5091364;28;20502;-73
2022/11/26 02:20:23;;;;;;;1.23;0.80;;;;;;;5.82;51.17;93026.81;5093245;28;20101;-73
2022/11/26 02:22:48;;;;;;;1.00;0.68;;;;;;;5.78;51.57;93035.34;5092190;28;20062;-73
2022/11/26 02:25:26;;;;;;;0.75;0.70;;;;;;;5.88;50.66;93040.69;5075038;28;20055;-73
2022/11/26 02:28:04;;;;;;;1.00;0.95;;;;;;;5.86;50.58;93036.75;5074892;28;20036;-74
2022/11/26 02:30:35;;;;;;;0.98;0.73;;;;;;;5.88;50.33;93045.06;5091845;28;20039;-73
2022/11/26 02:33:08;;;;;;;1.80;1.10;;;;;;;5.92;49.69;93046.97;5073731;28;20071;-74
2022/11/26 02:35:40;;;;;;;1.73;0.98;;;;;;;5.95;50.04;93046.50;5071188;28;20037;-73
2022/11/26 02:38:13;;;;;;;0.93;0.75;;;;;;;6.01;49.90;93037.72;5054801;28;20036;-73
2022/11/26 02:40:38;;;;;;;3.45;0.95;;;;;;;5.97;50.11;93044.44;5072529;28;20047;-73
2022/11/26 02:43:04;;;;;;;0.63;0.60;;;;;;;5.97;49.25;93033.28;5071309;28;20577;-74
2022/11/26 02:45:34;;;;;;;0.80;0.60;;;;;;;6.02;48.86;93028.91;5071014;28;20032;-74
2022/11/26 02:48:03;;;;;;;2.20;1.13;;;;;;;5.98;48.93;93040.81;5072420;28;20398;-74
2022/11/26 02:50:41;;;;;;;2.22;0.88;;;;;;;5.95;48.73;93043.13;5105004;28;20482;-75
2022/11/26 02:53:09;;;;;;;0.88;0.75;;;;;;;6.07;47.44;93037.78;5070875;28;20056;-74
2022/11/26 02:55:40;;;;;;;1.35;0.70;;;;;;;6.09;46.98;93046.13;5072245;28;20029;-74
2022/11/26 02:58:06;;;;;;;2.05;0.90;;;;;;;6.08;47.37;93047.13;5072182;28;20029;-74
2022/11/26 03:00:35;;;;;;;0.57;0.57;;;;;;;6.07;46.98;93040.38;5070898;28;20401;-75
2022/11/26 03:03:07;;;;;;;0.93;0.60;;;;;;;6.10;46.39;93048.44;5072118;28;20047;-74
2022/11/26 03:05:37;;;;;;;0.93;0.70;;;;;;;6.05;47.05;93051.78;5072177;28;20032;-74
2022/11/26 03:08:05;;;;;;;1.00;0.80;;;;;;;6.02;46.56;93049.69;5104675;28;20033;-74
2022/11/26 03:10:31;;;;;;;1.83;0.65;;;;;;;6.02;46.54;93047.09;5070671;28;20548;-74
2022/11/26 03:12:57;;;;;;;0.63;0.63;;;;;;;6.07;46.02;93050.78;5067214;28;20063;-74
2022/11/26 03:15:22;;;;;;;0.77;0.68;;;;;;;5.99;46.10;93051.97;5090951;28;20044;-75
2022/11/26 03:17:48;;;;;;;0.75;0.70;;;;;;;5.96;46.28;93053.25;5090871;28;20039;-73
2022/11/26 03:20:14;;;;;;;1.73;1.00;;;;;;;6.04;45.94;93050.22;5090293;28;20036;-74
2022/11/26 03:22:40;;;;;;;1.38;0.80;;;;;;;6.18;44.76;93040.22;5090710;28;20040;-73
2022/11/26 03:25:07;;;;;;;0.60;0.60;;;;;;;6.25;44.97;93045.25;5090801;28;20505;-73
2022/11/26 03:27:33;;;;;;;1.17;0.70;;;;;;;6.35;43.99;93049.75;5090504;28;20105;-73
2022/11/26 03:29:58;;;;;;;1.20;0.63;;;;;;;6.35;45.06;93034.94;5090674;28;20040;-73
2022/11/26 03:32:24;;;;;;;1.30;0.80;;;;;;;6.40;44.28;93053.19;5090584;28;20024;-74
2022/11/26 03:34:50;;;;;;;1.90;0.95;;;;;;;6.39;44.25;93028.19;5091527;28;20511;-74
2022/11/26 03:37:16;;;;;;;0.82;0.70;;;;;;;6.41;43.76;93049.53;5090156;28;20039;-74
2022/11/26 03:39:42;;;;;;;1.40;0.60;;;;;;;6.52;43.56;93042.63;5091659;28;20031;-74
2022/11/26 03:42:08;;;;;;;0.75;0.70;;;;;;;6.71;42.00;93037.84;5091566;28;20031;-74
2022/11/26 03:44:33;;;;;;;0.68;0.55;;;;;;;6.61;42.85;93048.16;5090453;28;20516;-73
2022/11/26 03:46:59;;;;;;;0.60;0.50;;;;;;;6.82;41.70;93034.31;5091207;28;20027;-74
2022/11/26 03:49:25;;;;;;;0.85;0.60;;;;;;;6.90;41.74;93040.84;5091598;28;20111;-74
2022/11/26 03:51:51;;;;;;;1.25;0.75;;;;;;;6.75;42.32;93054.50;5090115;28;20040;-75
2022/11/26 03:54:17;;;;;;;0.50;0.50;;;;;;;6.62;43.24;93066.13;5090175;28;20132;-74
2022/11/26 03:56:42;;;;;;;1.20;0.65;;;;;;;6.47;43.18;93060.78;5089844;28;20122;-73
2022/11/26 03:59:08;;;;;;;1.38;0.82;;;;;;;6.59;41.65;93060.63;5091273;28;20048;-74
2022/11/26 04:01:33;;;;;;;0.60;0.60;;;;;;;6.57;42.36;93054.88;5073392;28;20035;-74
2022/11/26 04:03:59;;;;;;;0.75;0.70;;;;;;;6.54;43.21;93063.19;5090867;28;20563;-75
2022/11/26 04:06:24;;;;;;;0.50;0.50;;;;;;;6.65;42.34;93064.84;5090059;28;20095;-75
2022/11/26 04:08:50;;;;;;;0.95;0.70;;;;;;;6.46;43.64;93067.81;5073234;28;20115;-74
2022/11/26 04:11:16;;;;;;;0.73;0.60;;;;;;;6.35;43.72;93084.34;5073066;28;20674;-74
2022/11/26 04:13:41;;;;;;;0.50;0.50;;;;;;;6.39;43.93;93087.22;5073438;28;20046;-74
2022/11/26 04:16:07;;;;;;;1.23;0.63;;;;;;;6.32;44.91;93087.41;5091142;28;20069;-73
2022/11/26 04:18:33;;;;;;;1.20;0.65;;;;;;;6.15;45.41;93090.13;5091038;28;20039;-74
2022/11/26 04:20:59;;;;;;;0.73;0.70;;;;;;;6.01;46.54;93092.31;5091099;28;20060;-73
2022/11/26 04:23:25;;;;;;;0.93;0.80;;;;;;;5.97;45.98;93099.00;5091044;28;20023;-73
2022/11/26 04:25:50;;;;;;;1.20;0.90;;;;;;;6.09;45.71;93105.91;5089738;28;20370;-73
2022/11/26 04:28:16;;;;;;;1.02;0.90;;;;;;;6.13;45.64;93094.00;5091017;28;20635;-74
2022/11/26 04:30:42;;;;;;;0.85;0.63;;;;;;;5.95;46.90;93098.47;5089705;28;20097;-74
2022/11/26 04:33:08;;;;;;;0.80;0.70;;;;;;;5.76;47.94;93097.16;5089225;28;20071;-73
2022/11/26 04:35:34;;;;;;;1.35;0.90;;;;;;;5.57;49.02;93102.63;5082876;28;20060;-73
2022/11/26 04:37:59;;;;;;;1.17;0.63;;;;;;;5.39;49.81;93095.13;5052872;28;20055;-74
2022/11/26 04:40:25;;;;;;;1.40;0.80;;;;;;;5.30;49.77;93106.94;5070702;28;20047;-73
2022/11/26 04:42:51;;;;;;;0.80;0.80;;;;;;;5.19;50.08;93101.59;5069436;28;20063;-74
2022/11/26 04:45:16;;;;;;;1.65;0.77;;;;;;;5.10;50.75;93104.84;5070697;28;20064;-74
2022/11/26 04:47:42;;;;;;;0.35;0.35;;;;;;;5.34;48.22;93101.03;5070402;28;20078;-73
2022/11/26 04:50:09;;;;;;;0.73;0.60;;;;;;;5.54;47.35;93103.13;5069287;28;20044;-73
2022/11/26 04:52:34;;;;;;;0.60;0.50;;;;;;;5.48;48.08;93096.28;5077956;28;20054;-73
2022/11/26 04:55:00;;;;;;;0.38;0.38;;;;;;;5.45;48.21;93096.78;5093399;28;20040;-73
2022/11/26 04:57:25;;;;;;;0.88;0.60;;;;;;;5.43;48.30;93097.00;5093532;28;20432;-74
2022/11/26 04:59:51;;;;;;;0.80;0.60;;;;;;;5.46;49.29;93105.34;5093507;28;20055;-73
2022/11/26 05:02:16;;;;;;;1.20;0.73;;;;;;;5.36;49.71;93106.78;5094743;28;20036;-73
2022/11/26 05:04:42;;;;;;;0.85;0.60;;;;;;;5.38;47.95;93109.94;5093346;28;20401;-73
2022/11/26 05:07:07;;;;;;;0.88;0.70;;;;;;;5.33;48.77;93107.25;5093141;28;20522;-73
2022/11/26 05:09:33;;;;;;;0.70;0.70;;;;;;;5.80;47.01;93106.03;5059894;28;20032;-73
2022/11/26 05:11:58;;;;;;;0.73;0.52;;;;;;;5.87;46.97;93111.84;5093320;28;20082;-74
2022/11/26 05:14:24;;;;;;;1.85;0.75;;;;;;;6.09;46.15;93113.69;5094544;28;20024;-73
2022/11/26 05:16:50;;;;;;;0.80;0.70;;;;;;;6.28;45.84;93107.13;5092932;28;20040;-74
2022/11/26 05:19:15;;;;;;;2.65;0.90;;;;;;;6.38;46.04;93117.66;5094527;28;20032;-74
2022/11/26 05:21:41;;;;;;;0.57;0.52;;;;;;;6.49;45.32;93120.38;5094513;28;20024;-74
2022/11/26 05:24:07;;;;;;;0.98;0.60;;;;;;;6.50;45.96;93125.31;5089142;28;20093;-73
2022/11/26 05:26:32;;;;;;;0.80;0.65;;;;;;;6.60;45.05;93124.66;5073906;28;20386;-74
2022/11/26 05:28:58;;;;;;;0.93;0.80;;;;;;;6.44;46.05;93126.31;5073952;28;20025;-74
2022/11/26 05:31:24;;;;;;;0.60;0.50;;;;;;;6.34;45.69;93126.97;5074015;28;20068;-73
2022/11/26 05:33:49;;;;;;;0.60;0.60;;;;;;;6.32;44.92;93123.03;5073838;28;20048;-74
2022/11/26 05:36:15;;;;;;;1.08;0.70;;;;;;;6.49;44.95;93128.19;5108250;28;20117;-74
2022/11/26 05:38:40;;;;;;;0.50;0.50;;;;;;;6.40;45.31;93138.22;5075930;28;20039;-74
2022/11/26 05:41:06;;;;;;;1.10;0.68;;;;;;;6.24;45.88;93119.84;5093952;28;20043;-74
2022/11/26 05:43:32;;;;;;;1.67;0.52;;;;;;;6.18;45.86;93127.84;5092488;28;20028;-73
2022/11/26 05:46:03;;;;;;;0.50;0.50;;;;;;;6.23;45.58;93120.09;5093918;28;20503;-74
2022/11/26 05:48:28;;;;;;;0.50;0.50;;;;;;;6.21;45.39;93122.16;5093720;28;20036;-73
2022/11/26 05:50:58;;;;;;;1.50;0.77;;;;;;;6.20;45.04;93116.16;5092713;28;20516;-74
2022/11/26 05:53:25;;;;;;;2.90;0.70;;;;;;;6.25;44.87;93120.63;5093659;28;20440;-74
2022/11/26 05:55:50;;;;;;;0.82;0.68;;;;;;;6.22;44.77;93119.31;5093692;28;20039;-74
2022/11/26 05:58:16;;;;;;;0.70;0.63;;;;;;;6.22;44.80;93123.72;5093636;28;20044;-74
2022/11/26 06:00:41;;;;;;;0.50;0.50;;;;;;;6.28;44.15;93116.75;5092353;28;20040;-74
2022/11/26 06:03:07;;;;;;;0.60;0.60;;;;;;;6.37;44.35;93118.69;5075363;28;20047;-74
2022/11/26 06:05:33;;;;;;;1.35;0.80;;;;;;;6.33;44.01;93122.81;5093272;28;20401;-74
2022/11/26 06:07:58;;;;;;;0.70;0.70;;;;;;;6.30;43.70;93120.69;5093521;28;20040;-74
2022/11/26 06:10:24;;;;;;;1.17;0.80;;;;;;;6.55;43.18;93127.19;5075171;28;20092;-75
2022/11/26 06:12:49;;;;;;;0.40;0.40;;;;;;;6.53;43.17;93129.25;5092108;28;20118;-75
2022/11/26 06:15:15;;;;;;;0.50;0.50;;;;;;;6.50;42.47;93127.13;5093191;28;20067;-75
2022/11/26 06:17:41;;;;;;;0.60;0.52;;;;;;;6.47;42.63;93124.00;5075301;28;20043;-74
2022/11/26 06:20:07;;;;;;;0.50;0.50;;;;;;;6.53;42.99;93144.84;5074896;28;20077;-75
2022/11/26 06:22:42;;;;;;;0.73;0.47;;;;;;;6.47;43.43;93136.22;5091998;28;20035;-75
2022/11/26 06:25:11;;;;;;;0.82;0.60;;;;;;;6.62;42.77;93138.97;5091981;28;20028;-75
2022/11/26 06:27:36;;;;;;;0.60;0.60;;;;;;;6.80;41.25;93140.44;5093157;28;20557;-75
2022/11/26 06:30:04;;;;;;;1.48;0.60;;;;;;;6.74;41.82;93146.63;5093007;28;20078;-75
2022/11/26 06:32:31;;;;;;;0.60;0.60;;;;;;;6.73;41.52;93146.88;5075503;28;20044;-74
2022/11/26 06:34:57;;;;;;;0.50;0.50;;;;;;;6.77;41.11;93160.97;5075020;28;20067;-74
2022/11/26 06:37:23;;;;;;;0.55;0.55;;;;;;;6.86;41.08;93149.84;5091639;28;20067;-76
2022/11/26 06:39:49;;;;;;;0.60;0.50;;;;;;;6.83;41.51;93155.56;5074764;28;20035;-74
2022/11/26 06:42:14;;;;;;;0.73;0.60;;;;;;;7.04;40.58;93166.16;5092810;28;20027;-75
2022/11/26 06:44:40;;;;;;;0.50;0.50;;;;;;;7.05;40.50;93172.94;5092740;28;20047;-74
2022/11/26 06:47:09;;;;;;;0.30;0.30;;;;;;;7.28;40.02;93156.22;5074348;28;20085;-74
2022/11/26 06:49:35;;;;;;;0.68;0.68;;;;;;;7.07;41.79;93170.88;5091140;28;20103;-76
2022/11/26 06:52:00;;;;;;;1.10;0.60;;;;;;;7.01;41.87;93166.66;5074455;28;20548;-76
2022/11/26 06:54:26;;;;;;;0.43;0.43;;;;;;;7.19;42.52;93179.31;5091358;28;20070;-75
2022/11/26 06:56:52;;;;;;;0.88;0.57;;;;;;;7.19;40.31;93176.72;5074046;28;20429;-75
2022/11/26 06:59:17;;;;;;;1.25;0.75;;;;;;;6.97;41.42;93171.56;5092404;28;20107;-75
2022/11/26 07:01:43;;;;;;;0.80;0.65;;;;;;;6.93;40.68;93188.69;5091361;28;20046;-74
2022/11/26 07:04:11;;;;;;;0.68;0.68;;;;;;;7.78;40.00;93191.47;5091232;28;20516;-76
2022/11/26 07:06:37;;;;;;;1.45;0.90;;;;;;;8.97;39.93;93206.63;5092587;28;20515;-76
2022/11/26 07:09:06;;;;;;;2.30;1.20;;;;;;;9.91;35.65;93188.88;5092676;28;20111;-76
2022/11/26 07:11:32;;;;;;;1.95;0.77;;;;;;;10.81;36.57;93192.53;5090867;28;20043;-75
2022/11/26 07:13:58;;;;;;;1.13;0.70;;;;;;;11.85;35.76;93212.53;5091875;28;20059;-75
2022/11/26 07:16:24;;;;;;;0.85;0.60;;;;;;;12.87;30.16;93192.31;5077223;28;20064;-75
2022/11/26 07:18:51;;;;;;;0.63;0.60;;;;;;;13.33;30.21;93200.41;5080780;28;20037;-76
2022/11/26 07:21:18;;;;;;;0.93;0.85;;;;;;;13.99;29.73;93203.06;5070349;28;20040;-75
2022/11/26 07:23:44;;;;;;;1.52;0.90;;;;;;;14.58;28.85;93204.13;5085151;28;20516;-75
2022/11/26 07:26:11;;;;;;;0.80;0.80;;;;;;;15.57;27.54;93199.16;5091874;28;20028;-76
2022/11/26 07:28:36;;;;;;;0.65;0.65;;;;;;;15.74;26.51;93206.44;5101904;28;20115;-76
2022/11/26 07:31:08;;;;;;;3.78;1.77;;;;;;;16.09;26.08;93211.16;5083208;28;20115;-76
2022/11/26 07:33:34;;;;;;;2.42;1.40;;;;;;;16.56;25.61;93211.53;5082790;28;20036;-75
2022/11/26 07:36:08;;;;;;;1.88;1.17;;;;;;;16.97;26.16;93226.31;5084364;28;20032;-75
2022/11/26 07:38:34;;;;;;;2.45;1.30;;;;;;;17.55;25.73;93227.81;5059650;28;20036;-75
2022/11/26 07:41:05;;;;;;;1.48;0.80;;;;;;;18.15;24.26;93233.38;5084400;28;20019;-78
2022/11/26 07:43:33;;;;;;;1.08;0.80;;;;;;;18.36;23.56;93234.28;5079661;28;20020;-77
2022/11/26 07:46:04;;;;;;;1.13;0.57;;;;;;;19.17;22.46;93224.63;5089203;28;20039;-76
2022/11/26 07:48:38;;;;;;;0.77;0.50;;;;;;;18.82;23.22;93234.63;5089298;28;20028;-77
2022/11/26 07:51:06;;;;;;;0.98;0.60;;;;;;;18.68;22.03;93240.13;5090705;28;20032;-76
2022/11/26 07:53:34;;;;;;;1.13;0.70;;;;;;;19.71;21.93;93238.03;5089724;28;20573;-76
2022/11/26 07:56:04;;;;;;;1.30;0.50;;;;;;;20.05;21.06;93238.84;5091381;28;20047;-77
2022/11/26 07:58:29;;;;;;;1.55;0.60;;;;;;;20.14;21.61;93234.22;5090380;28;20035;-76
2022/11/26 08:00:55;;;;;;;1.40;0.75;;;;;;;20.76;21.03;93247.69;5091311;28;20032;-76
2022/11/26 08:03:20;;;;;;;0.75;0.55;;;;;;;21.20;19.84;93243.38;5089930;28;20040;-76
2022/11/26 08:05:46;;;;;;;0.75;0.70;;;;;;;21.35;20.04;93236.59;5089979;28;20040;-76
2022/11/26 08:08:12;;;;;;;0.57;0.57;;;;;;;21.38;19.47;93243.91;5090163;28;20032;-76
2022/11/26 08:10:38;;;;;;;0.95;0.52;;;;;;;21.68;19.39;93249.00;5072839;28;20041;-76
2022/11/26 08:13:04;;;;;;;0.60;0.60;;;;;;;21.61;19.33;93248.78;5069741;28;20093;-76
2022/11/26 08:15:31;;;;;;;0.90;0.80;;;;;;;21.79;18.40;93228.75;5086833;28;20036;-77
2022/11/26 08:17:57;;;;;;;0.50;0.50;;;;;;;21.05;19.63;93246.69;5069717;28;20464;-77
2022/11/26 08:20:23;;;;;;;1.02;0.63;;;;;;;21.86;19.44;93244.16;5072003;28;20094;-77
2022/11/26 08:22:49;;;;;;;2.70;0.77;;;;;;;21.35;18.90;93249.16;5071087;28;20433;-76
2022/11/26 08:25:15;;;;;;;1.52;1.00;;;;;;;22.45;18.80;93248.84;5069627;28;20071;-77
2022/11/26 08:27:41;;;;;;;0.80;0.80;;;;;;;23.26;17.95;93245.13;5070143;28;20038;-77
2022/11/26 08:30:07;;;;;;;0.95;0.70;;;;;;;22.46;18.51;93262.97;5079505;28;20067;-77
2022/11/26 08:32:33;;;;;;;0.63;0.52;;;;;;;22.70;17.96;93245.25;5089344;28;20565;-77
2022/11/26 08:34:59;;;;;;;0.60;0.60;;;;;;;22.11;17.48;93250.22;5095873;28;20378;-76
2022/11/26 08:37:25;;;;;;;0.70;0.63;;;;;;;20.69;19.32;93266.06;5093806;28;20090;-77
2022/11/26 08:39:50;;;;;;;0.40;0.40;;;;;;;20.59;19.55;93268.06;5083720;28;20040;-77
2022/11/26 08:42:16;;;;;;;1.58;0.80;;;;;;;20.48;20.00;93269.53;5082687;28;20051;-77
2022/11/26 08:44:42;;;;;;;2.17;1.20;;;;;;;20.46;20.09;93276.31;5095328;28;20032;-77
2022/11/26 08:47:08;;;;;;;2.08;1.20;;;;;;;20.39;19.15;93263.53;5094984;28;20036;-77
2022/11/26 08:49:33;;;;;;;2.70;0.90;;;;;;;21.07;20.14;93283.63;5092713;28;20123;-77
2022/11/26 08:51:59;;;;;;;0.65;0.52;;;;;;;20.35;19.12;93275.94;5090885;28;20509;-77
2022/11/26 08:54:25;;;;;;;1.75;0.85;;;;;;;20.58;19.61;93279.81;5056745;28;20040;-77
2022/11/26 08:56:50;;;;;;;0.50;0.50;;;;;;;20.82;18.61;93283.59;5073201;28;20075;-77
2022/11/26 08:59:18;;;;;;;0.70;0.47;;;;;;;20.82;18.19;93286.28;5074432;28;20224;-77
2022/11/26 09:01:44;;;;;;;0.50;0.43;;;;;;;20.24;19.58;93282.75;5092375;28;20051;-76
2022/11/26 09:04:09;;;;;;;1.10;0.63;;;;;;;20.27;20.08;93279.47;5094386;28;20028;-76
2022/11/26 09:06:36;;;;;;;0.82;0.57;;;;;;;19.21;19.46;93283.94;5093379;28;20031;-76
2022/11/26 09:09:11;;;;;;;0.35;0.35;;;;;;;19.40;21.13;93286.16;5092442;28;20118;-76
2022/11/26 09:11:49;;;;;;;0.68;0.50;;;;;;;19.54;20.97;93291.22;5074044;28;20042;-76
2022/11/26 09:14:18;;;;;;;0.50;0.50;;;;;;;19.91;20.11;93286.19;5074059;28;20032;-76
2022/11/26 09:16:44;;;;;;;0.85;0.40;;;;;;;18.80;20.77;93289.88;5073943;28;20032;-76
2022/11/26 09:19:12;;;;;;;0.40;0.40;;;;;;;18.99;20.72;93292.16;5076418;28;20397;-76
2022/11/26 09:21:37;;;;;;;0.50;0.40;;;;;;;19.41;20.52;93286.94;5073955;28;20043;-76
2022/11/26 09:24:03;;;;;;;1.17;1.00;;;;;;;19.57;19.85;93293.25;5074028;28;20040;-75
2022/11/26 09:26:30;;;;;;;0.60;0.60;;;;;;;19.14;20.20;93296.94;5089984;28;20020;-75
2022/11/26 09:28:56;;;;;;;1.70;1.13;;;;;;;19.32;20.04;93290.44;5078916;28;20119;-75
2022/11/26 09:31:22;;;;;;;2.13;0.80;;;;;;;18.60;20.76;93296.59;5094065;28;20046;-75
2022/11/26 09:33:49;;;;;;;1.35;0.70;;;;;;;18.71;20.98;93297.81;5092911;28;20049;-76
2022/11/26 09:36:16;;;;;;;2.13;0.60;;;;;;;18.93;20.61;93296.84;5092809;28;20035;-75
2022/11/26 09:38:42;;;;;;;1.40;0.90;;;;;;;18.26;21.39;93295.56;5092728;28;20043;-76
2022/11/26 09:41:26;;;;;;;2.55;1.20;;;;;;;18.82;20.37;93301.72;5077837;28;20025;-75
2022/11/26 09:44:28;;;;;;;1.00;0.73;;;;;;;18.74;21.38;93302.50;5073516;28;20515;-74
2022/11/26 09:47:05;;;;;;;0.73;0.60;;;;;;;18.98;19.38;93306.50;5072256;28;20040;-75
2022/11/26 09:49:53;;;;;;;2.60;1.48;;;;;;;18.39;21.15;93299.91;5073563;28;20482;-76
2022/11/26 09:52:23;;;;;;;0.60;0.50;;;;;;;18.52;20.15;93296.31;5073383;28;20044;-76
2022/11/26 09:54:55;;;;;;;0.60;0.50;;;;;;;18.46;20.61;93307.38;5073543;28;20479;-76
2022/11/26 09:57:28;;;;;;;1.02;0.75;;;;;;;18.71;21.09;93314.53;5071996;28;20050;-76
2022/11/26 09:59:55;;;;;;;0.77;0.50;;;;;;;18.90;20.34;93316.81;5073372;28;20036;-76
2022/11/26 10:02:21;;;;;;;0.52;0.50;;;;;;;19.30;19.92;93313.84;5075726;28;20562;-76
2022/11/26 10:04:47;;;;;;;1.30;0.43;;;;;;;18.55;19.69;93320.63;5073274;28;20048;-77
2022/11/26 10:07:38;;;;;;;2.45;1.27;;;;;;;17.95;20.56;93315.09;5055328;28;20040;-76
2022/11/26 10:10:11;;;;;;;0.93;0.60;;;;;;;18.20;20.39;93326.75;5073183;28;20113;-76
2022/11/26 10:13:02;;;;;;;0.40;0.40;;;;;;;18.47;20.75;93315.03;5073594;28;20044;-76
2022/11/26 10:15:37;;;;;;;1.10;0.73;;;;;;;18.35;20.27;93327.38;5073420;28;20173;-75
2022/11/26 10:18:21;;;;;;;1.45;0.60;;;;;;;18.97;20.67;93336.78;5073610;28;20078;-75
2022/11/26 10:21:04;;;;;;;1.13;0.50;;;;;;;18.60;19.07;93326.56;5088715;28;20051;-75
2022/11/26 10:23:44;;;;;;;0.50;0.50;;;;;;;18.27;20.30;93342.19;5076191;28;20464;-75
2022/11/26 10:26:26;;;;;;;0.60;0.60;;;;;;;17.83;19.98;93336.09;5072890;28;20032;-75
2022/11/26 10:29:05;;;;;;;0.77;0.60;;;;;;;17.76;20.38;93343.69;5072695;28;20028;-75
2022/11/26 10:31:32;;;;;;;0.93;0.63;;;;;;;17.21;22.36;93345.75;5072579;28;20047;-76
2022/11/26 10:34:01;;;;;;;0.40;0.40;;;;;;;17.19;21.30;93344.50;5074144;28;20057;-76
2022/11/26 10:36:35;;;;;;;1.60;1.00;;;;;;;17.68;20.97;93348.66;5079454;28;20040;-76
2022/11/26 10:39:00;;;;;;;2.00;0.88;;;;;;;17.84;21.25;93364.16;5086716;28;20031;-77
2022/11/26 10:41:32;;;;;;;3.88;1.70;;;;;;;17.10;21.85;93365.63;5073839;28;20090;-75
2022/11/26 10:44:38;;;;;;;2.35;0.70;;;;;;;17.44;21.49;93349.06;5080443;28;20521;-77
2022/11/26 10:47:29;;;;;;;0.95;0.65;;;;;;;18.10;20.81;93351.72;5071436;28;20106;-76
2022/11/26 10:50:03;;;;;;;0.68;0.50;;;;;;;18.43;21.20;93356.50;5072775;28;20389;-76
2022/11/26 10:52:32;;;;;;;0.57;0.57;;;;;;;18.73;21.02;93353.97;5071045;28;20044;-75
2022/11/26 10:55:19;;;;;;;0.45;0.45;;;;;;;18.60;20.65;93358.38;5082582;28;20513;-75
2022/11/26 10:57:50;;;;;;;1.10;0.55;;;;;;;18.53;21.18;93352.78;5070515;28;20506;-75
2022/11/26 11:00:37;;;;;;;1.00;0.60;;;;;;;18.09;20.67;93342.19;5092219;28;20040;-75
2022/11/26 11:03:13;;;;;;;0.70;0.60;;;;;;;18.04;22.43;93349.53;5091240;28;20040;-76
2022/11/26 11:05:40;;;;;;;0.38;0.38;;;;;;;18.28;22.18;93338.44;5083474;28;20374;-75
2022/11/26 11:08:12;;;;;;;0.63;0.38;;;;;;;17.46;19.94;93343.47;5093235;28;20031;-78
2022/11/26 11:10:52;;;;;;;0.50;0.50;;;;;;;17.58;20.96;93350.81;5092401;28;20127;-79
2022/11/26 11:13:17;;;;;;;1.25;0.88;;;;;;;17.38;22.09;93333.63;5084716;28;20379;-79
2022/11/26 11:15:43;;;;;;;0.70;0.47;;;;;;;17.74;21.50;93327.34;5081952;28;20051;-78
2022/11/26 11:18:17;;;;;;;1.02;0.70;;;;;;;18.18;21.80;93334.25;5089487;28;20036;-78
2022/11/26 11:20:51;;;;;;;1.65;0.68;;;;;;;17.97;21.32;93322.69;5101241;28;20094;-79
2022/11/26 11:23:21;;;;;;;0.45;0.45;;;;;;;17.77;21.01;93326.72;5072991;28;20037;-79
2022/11/26 11:25:58;;;;;;;0.60;0.50;;;;;;;18.19;20.58;93325.19;5074707;28;20036;-79
2022/11/26 11:28:27;;;;;;;0.73;0.70;;;;;;;17.91;22.00;93324.72;5081115;28;20040;-79
2022/11/26 11:31:21;;;;;;;1.42;0.82;;;;;;;17.28;22.13;93318.84;5075139;28;20035;-80
2022/11/26 11:33:49;;;;;;;0.60;0.50;;;;;;;17.89;22.40;93330.34;5062728;28;20207;-79
2022/11/26 11:36:14;;;;;;;0.50;0.50;;;;;;;17.88;20.24;93322.72;5075902;28;20074;-79
2022/11/26 11:38:56;;;;;;;4.93;1.80;;;;;;;17.93;20.17;93317.25;5091985;28;20028;-78
2022/11/26 11:41:34;;;;;;;2.17;1.10;;;;;;;17.74;20.85;93320.16;5084376;28;20040;-78
2022/11/26 11:44:17;;;;;;;1.23;0.70;;;;;;;17.73;21.52;93329.22;5077952;28;20032;-78
2022/11/26 11:46:45;;;;;;;2.08;0.98;;;;;;;17.92;20.39;93326.28;5083334;28;20157;-78
2022/11/26 11:49:20;;;;;;;0.70;0.70;;;;;;;18.00;20.96;93322.88;5080110;28;20032;-78